Dogwood, Texas
Current Conditions -  °F | °C
As of 4:15 AM on Sunday 23 Nov 2014 (Local Time) from KJAS Reporting Station
Moderate Rain Moderate Rain  
Wind Chill: 60°   Ceiling: 4400
Heat Index: 60°   Visibility: 7mi
Dew Point: 59°   Wind: 5mph
Humidity: 94%   Direction: 60°ENE
Pressure: 29.67"   Gusts: NA
Location:  30.7643°N, 94.4448°W
Report Text: KJAS 231015Z AUTO 06004KT 7SM RA BKN044 OVC050 16/15 A2967 RMK AO2 P0003 T01580149
Loading
Personal Weather Stations






























Interactive Weather Map New forecast layout! Learn more

10-Day Weather Forecast

Advertisements
Track Severe Weather on mobile